createdAt,value
2018-08-31T00:02:26.078Z,64.00
2018-08-31T00:05:37.075Z,64.00
2018-08-31T00:09:17.602Z,64.10
2018-08-31T00:12:01.920Z,64.80
2018-08-31T00:14:30.358Z,64.10
2018-08-31T00:16:58.933Z,64.40
2018-08-31T00:19:27.515Z,64.20
2018-08-31T00:21:55.936Z,64.00
2018-08-31T00:24:35.726Z,64.10
2018-08-31T00:27:15.555Z,64.10
2018-08-31T00:29:55.440Z,64.00
2018-08-31T00:33:03.298Z,63.90
2018-08-31T00:35:43.055Z,63.90
2018-08-31T00:40:28.030Z,63.90
2018-08-31T00:45:13.453Z,63.90
2018-08-31T00:47:42.644Z,64.10
2018-08-31T00:50:12.151Z,64.60
2018-08-31T00:52:41.044Z,64.90
2018-08-31T00:55:09.475Z,64.90
2018-08-31T00:57:38.505Z,64.40
2018-08-31T01:00:06.906Z,65.00
2018-08-31T01:02:35.463Z,64.20
2018-08-31T01:05:03.870Z,64.30
2018-08-31T01:07:32.285Z,64.30
2018-08-31T01:10:00.730Z,64.30
2018-08-31T01:12:29.225Z,64.20
2018-08-31T01:14:57.546Z,64.20
2018-08-31T01:17:26.041Z,64.10
2018-08-31T01:19:54.374Z,64.00
2018-08-31T01:22:22.797Z,64.00
2018-08-31T01:24:51.275Z,63.80
2018-08-31T01:27:20.066Z,63.90
2018-08-31T01:29:48.522Z,64.00
2018-08-31T01:32:17.282Z,64.10
2018-08-31T01:34:46.102Z,64.60
2018-08-31T01:37:14.511Z,64.70
2018-08-31T01:39:43.011Z,64.80
2018-08-31T01:42:11.595Z,65.30
2018-08-31T01:44:40.319Z,64.50
2018-08-31T01:47:08.709Z,64.30
2018-08-31T01:49:37.336Z,64.70
2018-08-31T01:52:05.928Z,65.00
2018-08-31T01:54:34.266Z,65.20
2018-08-31T01:57:02.697Z,65.10
2018-08-31T01:59:31.070Z,65.30
2018-08-31T02:01:59.791Z,65.50
2018-08-31T02:04:28.179Z,65.60
2018-08-31T02:06:57.084Z,65.40
2018-08-31T02:09:25.473Z,65.00
2018-08-31T02:11:54.098Z,65.10
2018-08-31T02:14:22.534Z,65.00
2018-08-31T02:16:50.947Z,65.20
2018-08-31T02:19:19.339Z,65.20
2018-08-31T02:21:47.771Z,65.00
2018-08-31T02:24:16.185Z,65.00
2018-08-31T02:26:44.840Z,64.90
2018-08-31T02:29:13.517Z,64.90
2018-08-31T02:31:41.893Z,65.20
2018-08-31T02:34:10.364Z,65.30
2018-08-31T02:36:38.911Z,65.60
2018-08-31T02:39:08.021Z,65.40
2018-08-31T02:41:36.528Z,65.50
2018-08-31T02:44:05.012Z,65.60
2018-08-31T02:46:33.401Z,65.50
2018-08-31T02:49:01.805Z,65.50
2018-08-31T02:51:30.142Z,65.50
2018-08-31T02:53:58.544Z,65.40
2018-08-31T02:56:27.001Z,65.30
2018-08-31T02:58:55.586Z,65.40
2018-08-31T03:01:24.064Z,65.40
2018-08-31T03:03:52.549Z,65.30
2018-08-31T03:06:20.934Z,65.20
2018-08-31T03:08:49.420Z,65.30
2018-08-31T03:11:17.851Z,65.60
2018-08-31T03:13:46.202Z,65.60
2018-08-31T03:16:14.555Z,65.80
2018-08-31T03:18:42.873Z,66.10
2018-08-31T03:21:11.335Z,66.10
2018-08-31T03:23:39.709Z,66.00
2018-08-31T03:26:08.102Z,66.10
2018-08-31T03:28:36.452Z,65.90
2018-08-31T03:31:05.027Z,65.80
2018-08-31T03:33:33.362Z,65.80
2018-08-31T03:36:02.057Z,65.90
2018-08-31T03:38:30.430Z,65.90
2018-08-31T03:40:58.815Z,66.00
2018-08-31T03:43:27.149Z,66.30
2018-08-31T03:45:55.542Z,66.30
2018-08-31T03:48:24.086Z,66.40
2018-08-31T03:50:52.640Z,66.90
2018-08-31T03:53:20.895Z,66.30
2018-08-31T03:55:49.302Z,66.50
2018-08-31T03:58:17.680Z,66.70
2018-08-31T04:00:46.041Z,66.70
2018-08-31T04:03:14.399Z,66.70
2018-08-31T04:05:43.417Z,66.50
2018-08-31T04:08:16.053Z,66.80
2018-08-31T04:10:44.693Z,66.70
2018-08-31T04:13:13.377Z,66.70
2018-08-31T04:15:41.783Z,67.00
2018-08-31T04:18:10.274Z,67.20
2018-08-31T04:20:39.021Z,67.50
2018-08-31T04:23:07.606Z,67.60
2018-08-31T04:25:35.920Z,67.50
2018-08-31T04:28:04.310Z,67.50
2018-08-31T04:30:32.740Z,67.40
2018-08-31T04:33:01.139Z,67.20
2018-08-31T04:35:29.465Z,67.20
2018-08-31T04:37:57.803Z,67.00
2018-08-31T04:40:26.194Z,67.90
2018-08-31T04:42:54.679Z,67.40
2018-08-31T04:45:23.112Z,67.20
2018-08-31T04:47:51.447Z,67.10
2018-08-31T04:50:21.109Z,67.20
2018-08-31T04:52:50.038Z,67.20
2018-08-31T04:55:18.478Z,67.20
2018-08-31T04:57:46.840Z,67.20
2018-08-31T05:00:15.754Z,67.10
2018-08-31T05:02:44.263Z,67.10
2018-08-31T05:05:12.606Z,67.20
2018-08-31T05:07:41.021Z,67.40
2018-08-31T05:10:09.367Z,67.40
2018-08-31T05:12:37.814Z,67.10
2018-08-31T05:15:06.329Z,67.10
2018-08-31T05:17:34.708Z,67.40
2018-08-31T05:20:03.119Z,67.50
2018-08-31T05:22:31.581Z,67.50
2018-08-31T05:24:59.873Z,67.80
2018-08-31T05:27:28.316Z,67.90
2018-08-31T05:29:57.924Z,67.90
2018-08-31T05:32:26.239Z,67.90
2018-08-31T05:34:54.620Z,67.70
2018-08-31T05:37:22.964Z,67.80
2018-08-31T05:39:51.355Z,67.90
2018-08-31T05:42:19.814Z,68.00
2018-08-31T05:44:48.318Z,68.40
2018-08-31T05:47:16.684Z,68.70
2018-08-31T05:49:45.120Z,68.80
2018-08-31T05:52:13.447Z,69.00
2018-08-31T05:54:41.818Z,69.10
2018-08-31T05:57:10.286Z,68.80
2018-08-31T05:59:38.690Z,69.20
2018-08-31T06:02:07.136Z,69.30
2018-08-31T06:04:35.490Z,69.30
2018-08-31T06:07:03.921Z,69.00
2018-08-31T06:09:32.995Z,69.10
2018-08-31T06:12:01.498Z,69.30
2018-08-31T06:14:29.739Z,69.20
2018-08-31T06:16:58.080Z,69.20
2018-08-31T06:19:26.465Z,69.10
2018-08-31T06:21:54.867Z,68.80
2018-08-31T06:24:23.235Z,69.50
2018-08-31T06:26:51.743Z,69.30
2018-08-31T06:29:20.103Z,69.20
2018-08-31T06:31:48.570Z,69.00
2018-08-31T06:34:17.085Z,68.90
2018-08-31T06:36:45.392Z,68.60
2018-08-31T06:39:13.786Z,68.70
2018-08-31T06:41:42.176Z,69.20
2018-08-31T06:44:10.606Z,68.50
2018-08-31T06:46:38.954Z,68.30
2018-08-31T06:49:07.315Z,68.70
2018-08-31T06:51:35.703Z,69.10
2018-08-31T06:54:04.080Z,69.40
2018-08-31T06:56:32.414Z,68.80
2018-08-31T06:59:01.640Z,68.60
2018-08-31T07:01:30.165Z,68.40
2018-08-31T07:03:58.521Z,68.40
2018-08-31T07:06:26.867Z,68.10
2018-08-31T07:08:55.335Z,67.80
2018-08-31T07:11:23.723Z,67.30
2018-08-31T07:13:53.089Z,67.50
2018-08-31T07:16:21.463Z,67.50
2018-08-31T07:18:49.818Z,66.70
2018-08-31T07:21:18.198Z,66.60
2018-08-31T07:23:46.622Z,66.50
2018-08-31T07:26:15.030Z,66.30
2018-08-31T07:28:43.391Z,65.60
2018-08-31T07:31:11.827Z,65.80
2018-08-31T07:33:40.234Z,66.00
2018-08-31T07:36:08.637Z,65.40
2018-08-31T07:38:37.063Z,65.20
2018-08-31T07:41:05.687Z,65.60
2018-08-31T07:43:34.043Z,65.00
2018-08-31T07:46:02.386Z,64.40
2018-08-31T07:48:30.746Z,64.10
2018-08-31T07:50:59.108Z,63.80
2018-08-31T07:53:27.470Z,63.00
2018-08-31T07:55:55.920Z,63.70
2018-08-31T07:58:24.519Z,63.70
2018-08-31T08:00:53.183Z,63.60
2018-08-31T08:03:21.601Z,63.70
2018-08-31T08:05:49.965Z,63.50
2018-08-31T08:08:18.439Z,63.00
2018-08-31T08:10:46.790Z,63.00
2018-08-31T08:13:15.174Z,63.10
2018-08-31T08:15:43.621Z,62.90
2018-08-31T08:18:12.031Z,62.50
2018-08-31T08:20:40.443Z,62.00
2018-08-31T08:23:08.898Z,62.10
2018-08-31T08:25:37.231Z,61.70
2018-08-31T08:28:05.637Z,61.40
2018-08-31T08:30:34.238Z,62.20
2018-08-31T08:33:02.599Z,62.00
2018-08-31T08:35:31.410Z,62.00
2018-08-31T08:37:59.884Z,61.90
2018-08-31T08:40:28.260Z,62.00
2018-08-31T08:42:56.889Z,62.00
2018-08-31T08:45:25.259Z,61.80
2018-08-31T08:47:53.905Z,61.50
2018-08-31T08:50:22.325Z,61.80
2018-08-31T08:52:50.659Z,61.90
2018-08-31T08:55:19.068Z,61.80
2018-08-31T08:57:47.428Z,62.00
2018-08-31T09:00:15.867Z,61.70
2018-08-31T09:02:44.199Z,61.60
2018-08-31T09:05:12.626Z,61.30
2018-08-31T09:07:40.966Z,61.50
2018-08-31T09:10:09.370Z,61.50
2018-08-31T09:12:37.715Z,60.60
2018-08-31T09:15:06.574Z,61.40
2018-08-31T09:17:35.279Z,61.40
2018-08-31T09:20:03.679Z,61.10
2018-08-31T09:22:32.155Z,60.90
2018-08-31T09:25:00.539Z,60.60
2018-08-31T09:27:31.535Z,60.50
2018-08-31T09:29:59.912Z,60.60
2018-08-31T09:32:30.093Z,60.60
2018-08-31T09:34:59.019Z,60.40
2018-08-31T09:37:27.472Z,59.70
2018-08-31T09:39:55.859Z,59.50
2018-08-31T09:42:24.205Z,59.50
2018-08-31T09:44:52.602Z,59.30
2018-08-31T09:47:21.065Z,58.40
2018-08-31T09:49:49.612Z,58.40
2018-08-31T09:52:18.386Z,57.80
2018-08-31T09:54:46.787Z,58.40
2018-08-31T09:57:15.332Z,58.60
2018-08-31T09:59:43.691Z,57.50
2018-08-31T10:03:18.522Z,58.40
2018-08-31T10:05:46.954Z,58.80
2018-08-31T10:08:15.365Z,57.50
2018-08-31T10:10:43.754Z,57.20
2018-08-31T10:13:12.520Z,57.40
2018-08-31T10:15:41.751Z,56.40
2018-08-31T10:18:10.687Z,56.70
2018-08-31T10:20:39.059Z,55.60
2018-08-31T10:23:07.724Z,55.40
2018-08-31T10:25:36.307Z,54.80
2018-08-31T10:28:05.408Z,54.50
2018-08-31T10:30:33.947Z,54.90
2018-08-31T10:33:02.847Z,53.10
2018-08-31T10:35:31.839Z,54.70
2018-08-31T10:38:00.365Z,53.20
2018-08-31T10:40:29.175Z,52.40
2018-08-31T10:42:57.669Z,50.10
2018-08-31T10:45:26.182Z,51.10
2018-08-31T10:47:54.826Z,51.60
2018-08-31T10:50:23.822Z,52.10
2018-08-31T10:52:52.799Z,52.10
2018-08-31T10:55:21.208Z,52.50
2018-08-31T10:57:49.878Z,52.90
2018-08-31T11:00:18.550Z,52.40
2018-08-31T11:02:47.577Z,52.70
2018-08-31T11:05:16.156Z,51.10
2018-08-31T11:07:45.319Z,48.30
2018-08-31T11:10:13.997Z,47.40
2018-08-31T11:12:43.268Z,48.50
2018-08-31T11:15:11.664Z,47.20
2018-08-31T11:17:40.464Z,47.30
2018-08-31T11:20:08.937Z,48.20
2018-08-31T11:22:38.168Z,47.20
2018-08-31T11:25:07.311Z,47.70
2018-08-31T11:27:35.842Z,47.40
2018-08-31T11:30:04.514Z,47.70
2018-08-31T11:32:33.345Z,49.60
2018-08-31T11:35:02.628Z,49.40
2018-08-31T11:37:31.685Z,48.90
2018-08-31T11:40:00.893Z,48.10
2018-08-31T11:42:29.646Z,47.30
2018-08-31T11:44:59.401Z,45.90
2018-08-31T11:47:29.109Z,45.90
2018-08-31T11:49:57.882Z,47.20
2018-08-31T11:52:26.439Z,46.90
2018-08-31T11:54:56.696Z,46.00
2018-08-31T11:57:25.462Z,46.20
2018-08-31T11:59:54.082Z,46.50
2018-08-31T12:02:23.279Z,45.40
2018-08-31T12:04:52.143Z,46.40
2018-08-31T12:07:21.588Z,47.20
2018-08-31T12:09:50.138Z,46.80
2018-08-31T12:12:18.604Z,46.40
2018-08-31T12:14:47.501Z,45.50
2018-08-31T12:17:17.216Z,44.70
2018-08-31T12:19:47.186Z,43.20
2018-08-31T12:22:16.262Z,42.80
2018-08-31T12:24:45.180Z,44.20
2018-08-31T12:27:13.698Z,42.60
2018-08-31T12:29:42.135Z,42.90
2018-08-31T12:32:10.600Z,43.20
2018-08-31T12:34:39.029Z,42.90
2018-08-31T12:37:07.637Z,44.10
2018-08-31T12:39:36.618Z,43.70
2018-08-31T12:42:05.543Z,43.50
2018-08-31T12:44:35.056Z,44.30
2018-08-31T12:47:03.642Z,44.90
2018-08-31T12:49:32.885Z,44.30
2018-08-31T12:52:01.599Z,45.00
2018-08-31T12:54:29.966Z,44.60
2018-08-31T12:56:58.531Z,45.70
2018-08-31T12:59:27.873Z,45.60
2018-08-31T13:01:57.927Z,45.90
2018-08-31T13:04:27.385Z,45.30
2018-08-31T13:06:56.972Z,45.50
2018-08-31T13:09:25.842Z,46.30
2018-08-31T13:11:54.704Z,46.90
2018-08-31T13:14:23.187Z,47.20
2018-08-31T13:16:51.665Z,47.10
2018-08-31T13:19:20.151Z,47.50
2018-08-31T13:21:48.729Z,46.50
2018-08-31T13:24:17.308Z,46.70
2018-08-31T13:26:46.328Z,48.20
2018-08-31T13:29:15.327Z,47.80
2018-08-31T13:31:44.572Z,47.10
2018-08-31T13:34:13.589Z,48.40
2018-08-31T13:36:42.050Z,47.30
2018-08-31T13:39:10.734Z,46.90
2018-08-31T13:41:39.225Z,46.20
2018-08-31T13:44:07.821Z,45.40
2018-08-31T13:46:36.296Z,44.70
2018-08-31T13:49:04.767Z,45.00
2018-08-31T13:51:33.295Z,45.30
2018-08-31T13:54:02.007Z,44.90
2018-08-31T13:56:31.039Z,45.00
2018-08-31T13:58:59.435Z,46.40
2018-08-31T14:01:27.946Z,43.40
2018-08-31T14:03:56.488Z,43.70
2018-08-31T14:06:24.888Z,45.00
2018-08-31T14:08:53.332Z,44.30
2018-08-31T14:11:21.798Z,45.20
2018-08-31T14:13:50.388Z,44.80
2018-08-31T14:16:18.853Z,45.10
2018-08-31T14:18:47.361Z,43.90
2018-08-31T14:21:15.886Z,43.20
2018-08-31T14:23:44.568Z,43.90
2018-08-31T14:26:14.105Z,42.80
2018-08-31T14:28:43.362Z,41.90
2018-08-31T14:31:12.064Z,42.70
2018-08-31T14:33:40.565Z,41.90
2018-08-31T14:36:11.181Z,41.70
2018-08-31T14:38:39.811Z,40.60
2018-08-31T14:41:08.527Z,39.80
2018-08-31T14:43:36.947Z,40.10
2018-08-31T14:46:05.520Z,39.30
2018-08-31T14:48:34.398Z,40.00
2018-08-31T14:51:02.741Z,40.70
2018-08-31T14:53:31.208Z,40.10
2018-08-31T14:55:59.590Z,40.20
2018-08-31T14:58:28.333Z,40.00
2018-08-31T15:00:56.899Z,40.30
2018-08-31T15:03:25.315Z,40.50
2018-08-31T15:05:53.774Z,40.30
2018-08-31T15:08:22.912Z,39.50
2018-08-31T15:10:51.399Z,39.30
2018-08-31T15:13:20.664Z,39.40
2018-08-31T15:15:50.032Z,37.70
2018-08-31T15:18:18.684Z,38.20
2018-08-31T15:20:47.340Z,38.00
2018-08-31T15:23:15.999Z,39.50
2018-08-31T15:25:44.638Z,39.10
2018-08-31T15:28:13.240Z,39.00
2018-08-31T15:30:42.666Z,39.80
2018-08-31T15:33:12.316Z,40.00
2018-08-31T15:35:40.841Z,40.30
2018-08-31T15:38:09.639Z,40.60
2018-08-31T15:40:38.050Z,40.20
2018-08-31T15:43:06.576Z,40.60
2018-08-31T15:45:34.968Z,39.70
2018-08-31T15:48:03.373Z,40.70
2018-08-31T15:50:32.093Z,42.20
2018-08-31T15:53:00.492Z,39.90
2018-08-31T15:55:29.284Z,41.10
2018-08-31T15:57:57.995Z,39.70
2018-08-31T16:00:26.999Z,39.40
2018-08-31T16:02:56.814Z,40.60
2018-08-31T16:05:25.544Z,38.80
2018-08-31T16:07:55.094Z,40.60
2018-08-31T16:10:24.128Z,40.20
2018-08-31T16:12:53.394Z,40.70
2018-08-31T16:15:21.920Z,40.70
2018-08-31T16:17:50.529Z,40.70
2018-08-31T16:20:19.086Z,41.00
2018-08-31T16:22:47.864Z,41.40
2018-08-31T16:25:16.484Z,41.20
2018-08-31T16:27:46.072Z,41.70
2018-08-31T16:30:15.513Z,42.50
2018-08-31T16:32:45.125Z,43.60
2018-08-31T16:37:20.432Z,44.20
2018-08-31T16:39:49.115Z,44.80
2018-08-31T16:42:19.188Z,45.00
2018-08-31T16:44:48.361Z,44.50
2018-08-31T16:47:17.036Z,44.20
2018-08-31T16:49:45.530Z,44.80
2018-08-31T16:52:14.304Z,44.30
2018-08-31T16:54:43.487Z,43.30
2018-08-31T16:57:12.537Z,43.00
2018-08-31T16:59:41.032Z,42.90
2018-08-31T17:02:10.489Z,42.80
2018-08-31T17:04:39.207Z,43.40
2018-08-31T17:07:07.820Z,44.00
2018-08-31T17:09:36.959Z,44.20
2018-08-31T17:12:05.710Z,45.10
2018-08-31T17:14:34.163Z,44.60
2018-08-31T17:17:02.701Z,45.10
2018-08-31T17:19:31.199Z,45.30
2018-08-31T17:21:59.744Z,44.90
2018-08-31T17:24:28.220Z,45.50
2018-08-31T17:27:02.239Z,46.50
2018-08-31T17:29:33.267Z,46.00
2018-08-31T17:32:07.528Z,46.40
2018-08-31T17:34:41.264Z,46.60
2018-08-31T17:37:15.152Z,46.80
2018-08-31T17:39:43.669Z,47.60
2018-08-31T17:42:13.008Z,47.10
2018-08-31T17:44:41.656Z,46.80
2018-08-31T17:47:10.135Z,46.90
2018-08-31T17:49:38.663Z,46.90
2018-08-31T17:52:07.386Z,47.20
2018-08-31T17:54:35.936Z,46.80
2018-08-31T17:57:04.366Z,47.40
2018-08-31T17:59:32.789Z,47.20
2018-08-31T18:02:01.637Z,47.10
2018-08-31T18:04:30.215Z,47.30
2018-08-31T18:06:58.840Z,47.60
2018-08-31T18:09:27.419Z,47.20
2018-08-31T18:11:55.707Z,48.00
2018-08-31T18:14:24.082Z,47.90
2018-08-31T18:16:52.512Z,48.10
2018-08-31T18:19:20.943Z,47.90
2018-08-31T18:21:49.375Z,48.00
2018-08-31T18:24:17.791Z,48.00
2018-08-31T18:26:46.200Z,48.10
2018-08-31T18:29:14.576Z,48.50
2018-08-31T18:31:43.019Z,49.20
2018-08-31T18:34:11.684Z,49.30
2018-08-31T18:36:40.221Z,49.30
2018-08-31T18:39:09.250Z,49.20
2018-08-31T18:41:37.989Z,49.30
2018-08-31T18:44:06.432Z,49.20
2018-08-31T18:46:34.985Z,49.40
2018-08-31T18:49:03.375Z,49.10
2018-08-31T18:51:31.822Z,49.20
2018-08-31T18:54:00.545Z,49.20
2018-08-31T18:56:29.107Z,49.50
2018-08-31T18:58:57.481Z,49.40
2018-08-31T19:01:25.891Z,49.70
2018-08-31T19:03:54.469Z,49.50
2018-08-31T19:06:22.927Z,49.70
2018-08-31T19:08:51.342Z,49.60
2018-08-31T19:11:20.002Z,50.30
2018-08-31T19:13:48.429Z,50.00
2018-08-31T19:16:16.887Z,50.40
2018-08-31T19:18:45.352Z,50.30
2018-08-31T19:21:13.712Z,50.30
2018-08-31T19:23:42.192Z,50.70
2018-08-31T19:26:10.586Z,51.60
2018-08-31T19:28:39.000Z,51.20
2018-08-31T19:31:07.539Z,51.10
2018-08-31T19:33:35.949Z,50.90
2018-08-31T19:36:04.793Z,51.30
2018-08-31T19:38:33.291Z,51.60
2018-08-31T19:41:01.839Z,51.50
2018-08-31T19:43:30.379Z,51.80
2018-08-31T19:45:58.784Z,51.70
2018-08-31T19:48:27.273Z,51.90
2018-08-31T19:50:55.713Z,52.10
2018-08-31T19:53:25.129Z,52.30
2018-08-31T19:55:54.037Z,52.30
2018-08-31T19:58:22.805Z,52.40
2018-08-31T20:00:51.198Z,52.50
2018-08-31T20:03:19.928Z,52.60
2018-08-31T20:05:48.728Z,52.80
2018-08-31T20:08:17.297Z,53.20
2018-08-31T20:10:45.804Z,53.40
2018-08-31T20:13:14.577Z,53.60
2018-08-31T20:15:43.760Z,53.70
2018-08-31T20:18:12.540Z,53.70
2018-08-31T20:20:41.575Z,54.10
2018-08-31T20:23:10.143Z,54.10
2018-08-31T20:25:38.637Z,53.70
2018-08-31T20:28:07.120Z,54.00
2018-08-31T20:30:35.649Z,54.20
2018-08-31T20:33:04.222Z,54.60
2018-08-31T20:35:32.704Z,54.90
2018-08-31T20:38:01.372Z,54.50
2018-08-31T20:40:29.896Z,54.50
2018-08-31T20:42:59.707Z,54.50
2018-08-31T20:46:31.769Z,54.70
2018-08-31T20:49:00.493Z,55.10
2018-08-31T20:51:29.228Z,55.30
2018-08-31T20:53:57.967Z,55.00
2018-08-31T20:56:26.597Z,55.30
2018-08-31T20:58:54.985Z,55.40
2018-08-31T21:01:23.461Z,55.50
2018-08-31T21:03:52.443Z,56.10
2018-08-31T21:06:21.038Z,55.60
2018-08-31T21:08:50.688Z,55.80
2018-08-31T21:11:19.237Z,55.80
2018-08-31T21:13:47.698Z,56.00
2018-08-31T21:16:16.520Z,56.20
2018-08-31T21:18:45.428Z,56.40
2018-08-31T21:21:14.464Z,56.20
2018-08-31T21:23:43.254Z,56.30
2018-08-31T21:26:12.169Z,56.60
2018-08-31T21:28:41.057Z,56.40
2018-08-31T21:31:09.959Z,56.50
2018-08-31T21:33:38.507Z,56.50
2018-08-31T21:36:07.214Z,56.80
2018-08-31T21:38:35.911Z,56.70
2018-08-31T21:41:04.542Z,56.80
2018-08-31T21:43:33.236Z,57.00
2018-08-31T21:46:01.718Z,57.00
2018-08-31T21:48:30.092Z,57.30
2018-08-31T21:50:58.482Z,57.20
2018-08-31T21:53:26.976Z,57.20
2018-08-31T21:55:55.339Z,57.30
2018-08-31T21:58:23.728Z,57.50
2018-08-31T22:00:56.310Z,57.60
2018-08-31T22:03:24.822Z,57.80
2018-08-31T22:05:53.331Z,57.90
2018-08-31T22:08:21.767Z,57.90
2018-08-31T22:10:50.067Z,57.70
2018-08-31T22:13:18.690Z,57.70
2018-08-31T22:15:47.151Z,57.70
2018-08-31T22:18:15.511Z,57.80
2018-08-31T22:20:44.001Z,57.80
2018-08-31T22:23:12.757Z,57.80
2018-08-31T22:25:41.178Z,57.90
2018-08-31T22:28:09.514Z,57.90
2018-08-31T22:30:37.960Z,58.00
2018-08-31T22:33:08.279Z,58.10
2018-08-31T22:35:36.665Z,58.20
2018-08-31T22:38:05.059Z,58.30
2018-08-31T22:40:33.567Z,58.40
2018-08-31T22:43:02.187Z,58.30
2018-08-31T22:45:30.868Z,58.30
2018-08-31T22:47:59.543Z,58.40
2018-08-31T22:50:28.134Z,58.30
2018-08-31T22:52:56.495Z,58.30
2018-08-31T22:55:24.980Z,58.20
2018-08-31T22:57:53.341Z,58.20
2018-08-31T23:00:21.678Z,58.20
2018-08-31T23:02:50.088Z,58.30
2018-08-31T23:05:18.647Z,58.30
2018-08-31T23:07:52.635Z,58.40
2018-08-31T23:10:21.406Z,58.20
2018-08-31T23:12:49.979Z,58.20
2018-08-31T23:15:18.306Z,58.00
2018-08-31T23:17:49.463Z,58.20
2018-08-31T23:20:18.106Z,58.20
2018-08-31T23:22:46.816Z,58.20
2018-08-31T23:25:50.671Z,58.20
2018-08-31T23:28:20.366Z,58.90
2018-08-31T23:30:48.751Z,58.40
2018-08-31T23:33:17.239Z,58.40
2018-08-31T23:35:45.955Z,58.30
2018-08-31T23:38:14.309Z,58.20
2018-08-31T23:40:42.688Z,58.40
2018-08-31T23:43:11.047Z,58.30
2018-08-31T23:45:39.402Z,58.40
2018-08-31T23:48:07.745Z,58.50
2018-08-31T23:50:36.115Z,58.40
2018-08-31T23:53:04.527Z,58.20
2018-08-31T23:55:32.892Z,58.30
2018-08-31T23:58:01.301Z,58.30
